sensor_id;sensor_type;location;lat;lon;timestamp;P1;durP1;ratioP1;P2;durP2;ratioP2
20383;SDS011;46458;50.966;7.002;2024-02-28T00:01:21;46.77;;;25.03;;
20383;SDS011;46458;50.966;7.002;2024-02-28T00:03:51;49.80;;;24.70;;
20383;SDS011;46458;50.966;7.002;2024-02-28T00:06:20;48.30;;;23.97;;
20383;SDS011;46458;50.966;7.002;2024-02-28T00:08:49;53.83;;;27.07;;
20383;SDS011;46458;50.966;7.002;2024-02-28T00:11:20;51.67;;;25.70;;
20383;SDS011;46458;50.966;7.002;2024-02-28T00:13:51;54.17;;;25.90;;
20383;SDS011;46458;50.966;7.002;2024-02-28T00:16:20;49.30;;;24.63;;
20383;SDS011;46458;50.966;7.002;2024-02-28T00:18:49;47.93;;;24.83;;
20383;SDS011;46458;50.966;7.002;2024-02-28T00:21:18;47.63;;;24.90;;
20383;SDS011;46458;50.966;7.002;2024-02-28T00:23:47;50.33;;;26.17;;
20383;SDS011;46458;50.966;7.002;2024-02-28T00:26:16;50.97;;;26.03;;
20383;SDS011;46458;50.966;7.002;2024-02-28T00:28:45;49.57;;;25.33;;
20383;SDS011;46458;50.966;7.002;2024-02-28T00:31:19;51.43;;;26.30;;
20383;SDS011;46458;50.966;7.002;2024-02-28T00:33:50;47.83;;;25.67;;
20383;SDS011;46458;50.966;7.002;2024-02-28T00:36:19;48.80;;;25.77;;
20383;SDS011;46458;50.966;7.002;2024-02-28T00:38:48;48.07;;;26.07;;
20383;SDS011;46458;50.966;7.002;2024-02-28T00:41:20;49.00;;;26.03;;
20383;SDS011;46458;50.966;7.002;2024-02-28T00:43:51;52.80;;;25.83;;
20383;SDS011;46458;50.966;7.002;2024-02-28T00:46:20;49.73;;;25.00;;
20383;SDS011;46458;50.966;7.002;2024-02-28T00:48:49;45.97;;;24.93;;
20383;SDS011;46458;50.966;7.002;2024-02-28T00:51:18;47.00;;;24.10;;
20383;SDS011;46458;50.966;7.002;2024-02-28T00:53:50;52.63;;;25.63;;
20383;SDS011;46458;50.966;7.002;2024-02-28T00:56:22;46.93;;;24.90;;
20383;SDS011;46458;50.966;7.002;2024-02-28T00:58:55;50.03;;;26.13;;
20383;SDS011;46458;50.966;7.002;2024-02-28T01:01:23;50.30;;;26.80;;
20383;SDS011;46458;50.966;7.002;2024-02-28T01:03:52;49.73;;;26.30;;
20383;SDS011;46458;50.966;7.002;2024-02-28T01:06:33;49.43;;;25.70;;
20383;SDS011;46458;50.966;7.002;2024-02-28T01:09:02;48.83;;;25.27;;
20383;SDS011;46458;50.966;7.002;2024-02-28T01:11:33;49.27;;;24.77;;
20383;SDS011;46458;50.966;7.002;2024-02-28T01:14:05;49.57;;;25.63;;
20383;SDS011;46458;50.966;7.002;2024-02-28T01:16:34;51.70;;;26.30;;
20383;SDS011;46458;50.966;7.002;2024-02-28T01:19:03;49.07;;;24.67;;
20383;SDS011;46458;50.966;7.002;2024-02-28T01:21:34;52.63;;;26.00;;
20383;SDS011;46458;50.966;7.002;2024-02-28T01:24:03;45.37;;;24.37;;
20383;SDS011;46458;50.966;7.002;2024-02-28T01:26:32;48.77;;;25.63;;
20383;SDS011;46458;50.966;7.002;2024-02-28T01:29:06;47.73;;;25.17;;
20383;SDS011;46458;50.966;7.002;2024-02-28T01:31:38;48.43;;;25.63;;
20383;SDS011;46458;50.966;7.002;2024-02-28T01:34:10;46.77;;;25.13;;
20383;SDS011;46458;50.966;7.002;2024-02-28T01:36:38;48.30;;;24.90;;
20383;SDS011;46458;50.966;7.002;2024-02-28T01:39:07;48.37;;;25.10;;
20383;SDS011;46458;50.966;7.002;2024-02-28T01:41:36;48.23;;;24.90;;
20383;SDS011;46458;50.966;7.002;2024-02-28T01:44:07;50.03;;;24.83;;
20383;SDS011;46458;50.966;7.002;2024-02-28T01:46:36;44.93;;;25.80;;
20383;SDS011;46458;50.966;7.002;2024-02-28T01:49:08;50.73;;;26.37;;
20383;SDS011;46458;50.966;7.002;2024-02-28T01:51:42;49.53;;;26.53;;
20383;SDS011;46458;50.966;7.002;2024-02-28T01:54:13;52.93;;;27.47;;
20383;SDS011;46458;50.966;7.002;2024-02-28T01:56:48;51.50;;;27.37;;
20383;SDS011;46458;50.966;7.002;2024-02-28T01:59:20;52.43;;;27.03;;
20383;SDS011;46458;50.966;7.002;2024-02-28T02:01:51;50.87;;;26.57;;
20383;SDS011;46458;50.966;7.002;2024-02-28T02:04:22;60.57;;;31.87;;
20383;SDS011;46458;50.966;7.002;2024-02-28T02:06:51;59.70;;;31.10;;
20383;SDS011;46458;50.966;7.002;2024-02-28T02:09:23;62.90;;;30.83;;
20383;SDS011;46458;50.966;7.002;2024-02-28T02:11:52;55.33;;;29.47;;
20383;SDS011;46458;50.966;7.002;2024-02-28T02:14:33;54.30;;;29.43;;
20383;SDS011;46458;50.966;7.002;2024-02-28T02:17:03;64.97;;;32.27;;
20383;SDS011;46458;50.966;7.002;2024-02-28T02:19:35;69.67;;;35.37;;
20383;SDS011;46458;50.966;7.002;2024-02-28T02:22:04;66.07;;;33.83;;
20383;SDS011;46458;50.966;7.002;2024-02-28T02:24:35;74.93;;;34.93;;
20383;SDS011;46458;50.966;7.002;2024-02-28T02:27:04;68.60;;;34.83;;
20383;SDS011;46458;50.966;7.002;2024-02-28T02:29:33;62.63;;;34.03;;
20383;SDS011;46458;50.966;7.002;2024-02-28T02:32:02;67.93;;;35.10;;
20383;SDS011;46458;50.966;7.002;2024-02-28T02:34:34;70.83;;;37.00;;
20383;SDS011;46458;50.966;7.002;2024-02-28T02:37:03;72.17;;;37.73;;
20383;SDS011;46458;50.966;7.002;2024-02-28T02:39:36;76.47;;;36.43;;
20383;SDS011;46458;50.966;7.002;2024-02-28T02:42:05;77.20;;;39.40;;
20383;SDS011;46458;50.966;7.002;2024-02-28T02:44:34;81.13;;;39.63;;
20383;SDS011;46458;50.966;7.002;2024-02-28T02:47:03;73.83;;;37.67;;
20383;SDS011;46458;50.966;7.002;2024-02-28T02:49:32;80.60;;;39.23;;
20383;SDS011;46458;50.966;7.002;2024-02-28T02:52:04;84.60;;;42.13;;
20383;SDS011;46458;50.966;7.002;2024-02-28T02:54:33;78.33;;;37.80;;
20383;SDS011;46458;50.966;7.002;2024-02-28T02:57:05;78.40;;;37.73;;
20383;SDS011;46458;50.966;7.002;2024-02-28T02:59:35;78.23;;;39.67;;
20383;SDS011;46458;50.966;7.002;2024-02-28T03:02:04;73.80;;;39.37;;
20383;SDS011;46458;50.966;7.002;2024-02-28T03:04:33;75.53;;;39.17;;
20383;SDS011;46458;50.966;7.002;2024-02-28T03:07:05;74.37;;;37.87;;
20383;SDS011;46458;50.966;7.002;2024-02-28T03:09:34;75.80;;;38.47;;
20383;SDS011;46458;50.966;7.002;2024-02-28T03:12:05;81.30;;;39.37;;
20383;SDS011;46458;50.966;7.002;2024-02-28T03:14:35;79.07;;;39.50;;
20383;SDS011;46458;50.966;7.002;2024-02-28T03:17:04;75.27;;;38.70;;
20383;SDS011;46458;50.966;7.002;2024-02-28T03:19:35;78.87;;;38.70;;
20383;SDS011;46458;50.966;7.002;2024-02-28T03:22:04;72.93;;;37.67;;
20383;SDS011;46458;50.966;7.002;2024-02-28T03:24:32;75.13;;;38.90;;
20383;SDS011;46458;50.966;7.002;2024-02-28T03:27:07;73.50;;;37.20;;
20383;SDS011;46458;50.966;7.002;2024-02-28T03:29:36;73.97;;;38.20;;
20383;SDS011;46458;50.966;7.002;2024-02-28T03:32:05;74.57;;;37.43;;
20383;SDS011;46458;50.966;7.002;2024-02-28T03:34:34;74.37;;;36.13;;
20383;SDS011;46458;50.966;7.002;2024-02-28T03:37:06;74.67;;;37.80;;
20383;SDS011;46458;50.966;7.002;2024-02-28T03:39:38;75.53;;;37.33;;
20383;SDS011;46458;50.966;7.002;2024-02-28T03:42:09;71.83;;;35.77;;
20383;SDS011;46458;50.966;7.002;2024-02-28T03:44:39;72.37;;;36.40;;
20383;SDS011;46458;50.966;7.002;2024-02-28T03:47:09;71.27;;;36.50;;
20383;SDS011;46458;50.966;7.002;2024-02-28T03:49:38;78.10;;;37.73;;
20383;SDS011;46458;50.966;7.002;2024-02-28T03:52:09;73.07;;;36.57;;
20383;SDS011;46458;50.966;7.002;2024-02-28T03:54:41;68.87;;;34.63;;
20383;SDS011;46458;50.966;7.002;2024-02-28T03:57:16;67.90;;;36.07;;
20383;SDS011;46458;50.966;7.002;2024-02-28T03:59:45;71.83;;;35.03;;
20383;SDS011;46458;50.966;7.002;2024-02-28T04:02:13;69.93;;;35.00;;
20383;SDS011;46458;50.966;7.002;2024-02-28T04:04:42;68.50;;;34.93;;
20383;SDS011;46458;50.966;7.002;2024-02-28T04:07:11;72.33;;;34.73;;
20383;SDS011;46458;50.966;7.002;2024-02-28T04:09:43;71.30;;;34.57;;
20383;SDS011;46458;50.966;7.002;2024-02-28T04:12:17;66.93;;;33.50;;
20383;SDS011;46458;50.966;7.002;2024-02-28T04:14:46;67.00;;;35.30;;
20383;SDS011;46458;50.966;7.002;2024-02-28T04:17:15;76.33;;;37.20;;
20383;SDS011;46458;50.966;7.002;2024-02-28T04:19:46;75.20;;;36.43;;
20383;SDS011;46458;50.966;7.002;2024-02-28T04:22:15;71.43;;;36.40;;
20383;SDS011;46458;50.966;7.002;2024-02-28T04:24:45;77.20;;;37.60;;
20383;SDS011;46458;50.966;7.002;2024-02-28T04:27:13;76.40;;;35.23;;
20383;SDS011;46458;50.966;7.002;2024-02-28T04:29:48;72.27;;;36.60;;
20383;SDS011;46458;50.966;7.002;2024-02-28T04:32:17;72.63;;;37.60;;
20383;SDS011;46458;50.966;7.002;2024-02-28T04:34:46;72.13;;;37.63;;
20383;SDS011;46458;50.966;7.002;2024-02-28T04:37:15;75.07;;;37.83;;
20383;SDS011;46458;50.966;7.002;2024-02-28T04:39:43;78.23;;;36.90;;
20383;SDS011;46458;50.966;7.002;2024-02-28T04:42:12;73.90;;;36.60;;
20383;SDS011;46458;50.966;7.002;2024-02-28T04:44:46;77.90;;;36.37;;
20383;SDS011;46458;50.966;7.002;2024-02-28T04:47:15;80.10;;;36.23;;
20383;SDS011;46458;50.966;7.002;2024-02-28T04:49:44;79.03;;;37.30;;
20383;SDS011;46458;50.966;7.002;2024-02-28T04:52:16;81.03;;;39.43;;
20383;SDS011;46458;50.966;7.002;2024-02-28T04:54:45;81.57;;;37.83;;
20383;SDS011;46458;50.966;7.002;2024-02-28T04:57:14;75.80;;;37.27;;
20383;SDS011;46458;50.966;7.002;2024-02-28T04:59:43;81.53;;;37.53;;
20383;SDS011;46458;50.966;7.002;2024-02-28T05:02:15;78.03;;;39.00;;
20383;SDS011;46458;50.966;7.002;2024-02-28T05:04:47;82.90;;;37.20;;
20383;SDS011;46458;50.966;7.002;2024-02-28T05:07:16;85.47;;;40.13;;
20383;SDS011;46458;50.966;7.002;2024-02-28T05:09:45;77.27;;;36.17;;
20383;SDS011;46458;50.966;7.002;2024-02-28T05:12:13;72.70;;;36.37;;
20383;SDS011;46458;50.966;7.002;2024-02-28T05:14:42;76.70;;;37.73;;
20383;SDS011;46458;50.966;7.002;2024-02-28T05:17:14;77.37;;;37.43;;
20383;SDS011;46458;50.966;7.002;2024-02-28T05:19:43;81.93;;;38.70;;
20383;SDS011;46458;50.966;7.002;2024-02-28T05:22:13;82.20;;;39.67;;
20383;SDS011;46458;50.966;7.002;2024-02-28T05:24:41;76.90;;;37.57;;
20383;SDS011;46458;50.966;7.002;2024-02-28T05:27:15;78.83;;;39.10;;
20383;SDS011;46458;50.966;7.002;2024-02-28T05:29:45;74.27;;;37.03;;
20383;SDS011;46458;50.966;7.002;2024-02-28T05:32:16;76.03;;;37.07;;
20383;SDS011;46458;50.966;7.002;2024-02-28T05:34:46;80.87;;;37.57;;
20383;SDS011;46458;50.966;7.002;2024-02-28T05:37:16;74.03;;;35.63;;
20383;SDS011;46458;50.966;7.002;2024-02-28T05:39:45;81.90;;;39.03;;
20383;SDS011;46458;50.966;7.002;2024-02-28T05:42:14;76.83;;;36.20;;
20383;SDS011;46458;50.966;7.002;2024-02-28T05:44:47;78.07;;;37.20;;
20383;SDS011;46458;50.966;7.002;2024-02-28T05:47:21;79.50;;;37.83;;
20383;SDS011;46458;50.966;7.002;2024-02-28T05:49:50;76.33;;;36.83;;
20383;SDS011;46458;50.966;7.002;2024-02-28T05:52:21;79.87;;;37.40;;
20383;SDS011;46458;50.966;7.002;2024-02-28T05:54:50;80.23;;;38.33;;
20383;SDS011;46458;50.966;7.002;2024-02-28T05:57:19;80.57;;;36.90;;
20383;SDS011;46458;50.966;7.002;2024-02-28T05:59:52;75.70;;;35.57;;
20383;SDS011;46458;50.966;7.002;2024-02-28T06:02:24;74.13;;;34.67;;
20383;SDS011;46458;50.966;7.002;2024-02-28T06:04:52;74.37;;;35.10;;
20383;SDS011;46458;50.966;7.002;2024-02-28T06:07:21;72.10;;;33.73;;
20383;SDS011;46458;50.966;7.002;2024-02-28T06:09:50;72.37;;;34.47;;
20383;SDS011;46458;50.966;7.002;2024-02-28T06:12:19;75.87;;;35.13;;
20383;SDS011;46458;50.966;7.002;2024-02-28T06:14:49;72.20;;;35.00;;
20383;SDS011;46458;50.966;7.002;2024-02-28T06:17:18;67.67;;;32.43;;
20383;SDS011;46458;50.966;7.002;2024-02-28T06:19:51;75.30;;;35.23;;
20383;SDS011;46458;50.966;7.002;2024-02-28T06:22:19;83.97;;;36.27;;
20383;SDS011;46458;50.966;7.002;2024-02-28T06:24:51;74.50;;;34.67;;
20383;SDS011;46458;50.966;7.002;2024-02-28T06:27:23;82.57;;;36.47;;
20383;SDS011;46458;50.966;7.002;2024-02-28T06:29:52;77.33;;;36.43;;
20383;SDS011;46458;50.966;7.002;2024-02-28T06:32:23;75.83;;;35.37;;
20383;SDS011;46458;50.966;7.002;2024-02-28T06:34:54;72.50;;;35.03;;
20383;SDS011;46458;50.966;7.002;2024-02-28T06:37:23;76.60;;;36.37;;
20383;SDS011;46458;50.966;7.002;2024-02-28T06:39:53;84.33;;;37.70;;
20383;SDS011;46458;50.966;7.002;2024-02-28T06:42:22;76.73;;;36.03;;
20383;SDS011;46458;50.966;7.002;2024-02-28T06:44:51;75.77;;;35.10;;
20383;SDS011;46458;50.966;7.002;2024-02-28T06:47:20;81.53;;;36.40;;
20383;SDS011;46458;50.966;7.002;2024-02-28T06:49:49;73.23;;;34.77;;
20383;SDS011;46458;50.966;7.002;2024-02-28T06:52:21;78.73;;;35.50;;
20383;SDS011;46458;50.966;7.002;2024-02-28T06:54:50;80.73;;;36.60;;
20383;SDS011;46458;50.966;7.002;2024-02-28T06:57:19;77.53;;;35.00;;
20383;SDS011;46458;50.966;7.002;2024-02-28T06:59:48;83.40;;;37.03;;
20383;SDS011;46458;50.966;7.002;2024-02-28T07:02:17;76.20;;;35.47;;
20383;SDS011;46458;50.966;7.002;2024-02-28T07:04:45;75.83;;;36.13;;
20383;SDS011;46458;50.966;7.002;2024-02-28T07:07:14;72.40;;;34.33;;
20383;SDS011;46458;50.966;7.002;2024-02-28T07:09:46;78.50;;;35.97;;
20383;SDS011;46458;50.966;7.002;2024-02-28T07:12:15;76.87;;;36.97;;
20383;SDS011;46458;50.966;7.002;2024-02-28T07:14:44;78.57;;;36.73;;
20383;SDS011;46458;50.966;7.002;2024-02-28T07:17:13;77.17;;;35.50;;
20383;SDS011;46458;50.966;7.002;2024-02-28T07:19:42;77.73;;;36.93;;
20383;SDS011;46458;50.966;7.002;2024-02-28T07:22:11;79.90;;;37.10;;
20383;SDS011;46458;50.966;7.002;2024-02-28T07:24:42;80.70;;;36.43;;
20383;SDS011;46458;50.966;7.002;2024-02-28T07:27:14;73.50;;;35.47;;
20383;SDS011;46458;50.966;7.002;2024-02-28T07:29:42;78.87;;;35.70;;
20383;SDS011;46458;50.966;7.002;2024-02-28T07:32:11;83.10;;;37.40;;
20383;SDS011;46458;50.966;7.002;2024-02-28T07:34:40;76.03;;;36.07;;
20383;SDS011;46458;50.966;7.002;2024-02-28T07:37:09;76.03;;;35.80;;
20383;SDS011;46458;50.966;7.002;2024-02-28T07:39:38;80.67;;;36.80;;
20383;SDS011;46458;50.966;7.002;2024-02-28T07:42:09;76.57;;;35.03;;
20383;SDS011;46458;50.966;7.002;2024-02-28T07:44:38;83.63;;;36.70;;
20383;SDS011;46458;50.966;7.002;2024-02-28T07:47:07;78.23;;;37.70;;
20383;SDS011;46458;50.966;7.002;2024-02-28T07:49:36;75.23;;;35.80;;
20383;SDS011;46458;50.966;7.002;2024-02-28T07:52:05;74.20;;;34.67;;
20383;SDS011;46458;50.966;7.002;2024-02-28T07:54:37;76.30;;;35.83;;
20383;SDS011;46458;50.966;7.002;2024-02-28T07:57:05;73.07;;;33.57;;
20383;SDS011;46458;50.966;7.002;2024-02-28T07:59:42;71.57;;;34.70;;
20383;SDS011;46458;50.966;7.002;2024-02-28T08:02:12;68.23;;;32.53;;
20383;SDS011;46458;50.966;7.002;2024-02-28T08:04:40;79.00;;;35.63;;
20383;SDS011;46458;50.966;7.002;2024-02-28T08:07:12;77.60;;;36.43;;
20383;SDS011;46458;50.966;7.002;2024-02-28T08:09:40;78.57;;;35.43;;
20383;SDS011;46458;50.966;7.002;2024-02-28T08:12:12;74.47;;;35.13;;
20383;SDS011;46458;50.966;7.002;2024-02-28T08:14:38;77.60;;;36.23;;
20383;SDS011;46458;50.966;7.002;2024-02-28T08:17:07;75.13;;;36.07;;
20383;SDS011;46458;50.966;7.002;2024-02-28T08:19:36;68.87;;;34.07;;
20383;SDS011;46458;50.966;7.002;2024-02-28T08:22:04;72.90;;;35.00;;
20383;SDS011;46458;50.966;7.002;2024-02-28T08:24:36;69.70;;;32.37;;
20383;SDS011;46458;50.966;7.002;2024-02-28T08:27:05;65.37;;;33.60;;
20383;SDS011;46458;50.966;7.002;2024-02-28T08:29:37;68.00;;;33.80;;
20383;SDS011;46458;50.966;7.002;2024-02-28T08:32:12;66.33;;;34.77;;
20383;SDS011;46458;50.966;7.002;2024-02-28T08:34:43;60.90;;;32.00;;
20383;SDS011;46458;50.966;7.002;2024-02-28T08:37:13;62.50;;;32.37;;
20383;SDS011;46458;50.966;7.002;2024-02-28T08:39:42;67.20;;;33.10;;
20383;SDS011;46458;50.966;7.002;2024-02-28T08:42:17;65.13;;;34.53;;
20383;SDS011;46458;50.966;7.002;2024-02-28T08:44:48;68.60;;;33.80;;
20383;SDS011;46458;50.966;7.002;2024-02-28T08:47:17;64.83;;;32.60;;
20383;SDS011;46458;50.966;7.002;2024-02-28T08:49:48;65.37;;;32.57;;
20383;SDS011;46458;50.966;7.002;2024-02-28T08:52:20;62.30;;;32.13;;
20383;SDS011;46458;50.966;7.002;2024-02-28T08:54:49;64.80;;;32.10;;
20383;SDS011;46458;50.966;7.002;2024-02-28T08:57:23;59.50;;;30.60;;
20383;SDS011;46458;50.966;7.002;2024-02-28T08:59:55;59.27;;;31.23;;
20383;SDS011;46458;50.966;7.002;2024-02-28T09:02:24;59.10;;;31.77;;
20383;SDS011;46458;50.966;7.002;2024-02-28T09:04:53;65.97;;;32.40;;
20383;SDS011;46458;50.966;7.002;2024-02-28T09:07:22;65.00;;;33.17;;
20383;SDS011;46458;50.966;7.002;2024-02-28T09:09:52;60.67;;;31.83;;
20383;SDS011;46458;50.966;7.002;2024-02-28T09:12:21;63.60;;;30.87;;
20383;SDS011;46458;50.966;7.002;2024-02-28T09:14:51;62.20;;;31.47;;
20383;SDS011;46458;50.966;7.002;2024-02-28T09:17:27;57.20;;;32.13;;
20383;SDS011;46458;50.966;7.002;2024-02-28T09:19:56;59.70;;;29.67;;
20383;SDS011;46458;50.966;7.002;2024-02-28T09:22:28;64.30;;;33.70;;
20383;SDS011;46458;50.966;7.002;2024-02-28T09:24:57;56.77;;;30.20;;
20383;SDS011;46458;50.966;7.002;2024-02-28T09:27:29;60.07;;;31.40;;
20383;SDS011;46458;50.966;7.002;2024-02-28T09:29:58;60.07;;;30.83;;
20383;SDS011;46458;50.966;7.002;2024-02-28T09:32:30;62.77;;;32.97;;
20383;SDS011;46458;50.966;7.002;2024-02-28T09:35:02;57.57;;;29.83;;
20383;SDS011;46458;50.966;7.002;2024-02-28T09:37:32;49.93;;;27.80;;
20383;SDS011;46458;50.966;7.002;2024-02-28T09:40:00;55.83;;;30.07;;
20383;SDS011;46458;50.966;7.002;2024-02-28T09:42:30;59.83;;;29.63;;
20383;SDS011;46458;50.966;7.002;2024-02-28T09:45:00;57.10;;;29.17;;
20383;SDS011;46458;50.966;7.002;2024-02-28T09:47:34;51.47;;;28.77;;
20383;SDS011;46458;50.966;7.002;2024-02-28T09:50:04;59.80;;;30.07;;
20383;SDS011;46458;50.966;7.002;2024-02-28T09:52:35;50.17;;;28.07;;
20383;SDS011;46458;50.966;7.002;2024-02-28T09:55:04;54.70;;;29.53;;
20383;SDS011;46458;50.966;7.002;2024-02-28T09:57:33;51.93;;;28.70;;
20383;SDS011;46458;50.966;7.002;2024-02-28T10:00:05;52.57;;;28.87;;
20383;SDS011;46458;50.966;7.002;2024-02-28T10:02:39;59.53;;;30.67;;
20383;SDS011;46458;50.966;7.002;2024-02-28T10:05:09;56.47;;;29.93;;
20383;SDS011;46458;50.966;7.002;2024-02-28T10:07:38;53.47;;;27.37;;
20383;SDS011;46458;50.966;7.002;2024-02-28T10:10:07;49.80;;;28.17;;
20383;SDS011;46458;50.966;7.002;2024-02-28T10:12:34;56.10;;;29.87;;
20383;SDS011;46458;50.966;7.002;2024-02-28T10:15:03;54.03;;;28.30;;
20383;SDS011;46458;50.966;7.002;2024-02-28T10:17:34;46.80;;;26.80;;
20383;SDS011;46458;50.966;7.002;2024-02-28T10:20:06;50.33;;;27.47;;
20383;SDS011;46458;50.966;7.002;2024-02-28T10:22:36;50.83;;;28.40;;
20383;SDS011;46458;50.966;7.002;2024-02-28T10:25:08;48.33;;;27.00;;
20383;SDS011;46458;50.966;7.002;2024-02-28T10:27:41;51.63;;;27.87;;
20383;SDS011;46458;50.966;7.002;2024-02-28T10:30:10;50.43;;;28.17;;
20383;SDS011;46458;50.966;7.002;2024-02-28T10:32:48;52.83;;;28.77;;
20383;SDS011;46458;50.966;7.002;2024-02-28T10:35:20;51.47;;;28.43;;
20383;SDS011;46458;50.966;7.002;2024-02-28T10:37:51;51.83;;;27.73;;
20383;SDS011;46458;50.966;7.002;2024-02-28T10:40:23;53.03;;;26.80;;
20383;SDS011;46458;50.966;7.002;2024-02-28T10:42:52;54.70;;;29.23;;
20383;SDS011;46458;50.966;7.002;2024-02-28T10:45:23;47.03;;;27.63;;
20383;SDS011;46458;50.966;7.002;2024-02-28T10:47:58;49.43;;;27.87;;
20383;SDS011;46458;50.966;7.002;2024-02-28T10:50:33;49.87;;;28.43;;
20383;SDS011;46458;50.966;7.002;2024-02-28T10:53:03;47.27;;;27.50;;
20383;SDS011;46458;50.966;7.002;2024-02-28T10:55:33;48.73;;;28.67;;
20383;SDS011;46458;50.966;7.002;2024-02-28T10:58:03;51.03;;;28.33;;
20383;SDS011;46458;50.966;7.002;2024-02-28T11:00:39;51.40;;;27.93;;
20383;SDS011;46458;50.966;7.002;2024-02-28T11:03:10;48.93;;;28.00;;
20383;SDS011;46458;50.966;7.002;2024-02-28T11:05:43;51.17;;;29.37;;
20383;SDS011;46458;50.966;7.002;2024-02-28T11:08:20;49.50;;;28.80;;
20383;SDS011;46458;50.966;7.002;2024-02-28T11:10:56;49.33;;;27.90;;
20383;SDS011;46458;50.966;7.002;2024-02-28T11:13:35;48.93;;;27.87;;
20383;SDS011;46458;50.966;7.002;2024-02-28T11:16:07;45.63;;;27.33;;
20383;SDS011;46458;50.966;7.002;2024-02-28T11:18:47;49.10;;;27.73;;
20383;SDS011;46458;50.966;7.002;2024-02-28T11:21:24;44.77;;;27.10;;
20383;SDS011;46458;50.966;7.002;2024-02-28T11:23:56;42.03;;;25.60;;
20383;SDS011;46458;50.966;7.002;2024-02-28T11:26:26;47.47;;;27.53;;
20383;SDS011;46458;50.966;7.002;2024-02-28T11:28:55;47.23;;;27.53;;
20383;SDS011;46458;50.966;7.002;2024-02-28T11:31:24;43.53;;;26.67;;
20383;SDS011;46458;50.966;7.002;2024-02-28T11:33:53;45.13;;;26.80;;
20383;SDS011;46458;50.966;7.002;2024-02-28T11:36:25;43.53;;;26.83;;
20383;SDS011;46458;50.966;7.002;2024-02-28T11:38:53;43.53;;;25.47;;
20383;SDS011;46458;50.966;7.002;2024-02-28T11:41:26;39.83;;;25.47;;
20383;SDS011;46458;50.966;7.002;2024-02-28T11:43:58;41.33;;;25.57;;
20383;SDS011;46458;50.966;7.002;2024-02-28T11:46:27;41.87;;;25.77;;
20383;SDS011;46458;50.966;7.002;2024-02-28T11:48:56;37.93;;;23.77;;
20383;SDS011;46458;50.966;7.002;2024-02-28T11:51:31;40.57;;;24.53;;
20383;SDS011;46458;50.966;7.002;2024-02-28T11:54:01;40.20;;;24.83;;
20383;SDS011;46458;50.966;7.002;2024-02-28T11:56:31;42.07;;;25.57;;
20383;SDS011;46458;50.966;7.002;2024-02-28T11:59:00;44.03;;;25.97;;
20383;SDS011;46458;50.966;7.002;2024-02-28T12:01:33;37.30;;;23.63;;
20383;SDS011;46458;50.966;7.002;2024-02-28T12:04:09;36.93;;;22.67;;
20383;SDS011;46458;50.966;7.002;2024-02-28T12:06:42;36.07;;;23.70;;
20383;SDS011;46458;50.966;7.002;2024-02-28T12:09:11;36.93;;;23.30;;
20383;SDS011;46458;50.966;7.002;2024-02-28T12:11:45;36.57;;;23.90;;
20383;SDS011;46458;50.966;7.002;2024-02-28T12:14:15;34.57;;;22.20;;
20383;SDS011;46458;50.966;7.002;2024-02-28T12:16:44;33.13;;;22.30;;
20383;SDS011;46458;50.966;7.002;2024-02-28T12:19:13;32.47;;;20.60;;
20383;SDS011;46458;50.966;7.002;2024-02-28T12:21:48;35.60;;;20.87;;
20383;SDS011;46458;50.966;7.002;2024-02-28T12:24:17;29.43;;;21.00;;
20383;SDS011;46458;50.966;7.002;2024-02-28T12:26:46;38.57;;;24.73;;
20383;SDS011;46458;50.966;7.002;2024-02-28T12:29:17;35.60;;;23.07;;
20383;SDS011;46458;50.966;7.002;2024-02-28T12:31:49;33.77;;;22.67;;
20383;SDS011;46458;50.966;7.002;2024-02-28T12:34:18;31.65;;;21.63;;
20383;SDS011;46458;50.966;7.002;2024-02-28T12:36:54;28.73;;;20.50;;
20383;SDS011;46458;50.966;7.002;2024-02-28T12:39:30;33.40;;;21.13;;
20383;SDS011;46458;50.966;7.002;2024-02-28T12:42:00;26.20;;;18.65;;
20383;SDS011;46458;50.966;7.002;2024-02-28T12:44:28;30.13;;;19.98;;
20383;SDS011;46458;50.966;7.002;2024-02-28T12:46:57;26.25;;;18.65;;
20383;SDS011;46458;50.966;7.002;2024-02-28T12:49:26;26.02;;;17.73;;
20383;SDS011;46458;50.966;7.002;2024-02-28T12:51:57;25.10;;;17.98;;
20383;SDS011;46458;50.966;7.002;2024-02-28T12:54:26;26.48;;;19.02;;
20383;SDS011;46458;50.966;7.002;2024-02-28T12:56:55;28.17;;;18.27;;
20383;SDS011;46458;50.966;7.002;2024-02-28T12:59:24;28.58;;;19.88;;
20383;SDS011;46458;50.966;7.002;2024-02-28T13:01:53;29.13;;;19.55;;
20383;SDS011;46458;50.966;7.002;2024-02-28T13:04:22;28.55;;;20.02;;
20383;SDS011;46458;50.966;7.002;2024-02-28T13:06:58;28.00;;;18.33;;
20383;SDS011;46458;50.966;7.002;2024-02-28T13:09:27;28.05;;;18.90;;
20383;SDS011;46458;50.966;7.002;2024-02-28T13:11:57;25.48;;;18.50;;
20383;SDS011;46458;50.966;7.002;2024-02-28T13:14:27;25.20;;;17.42;;
20383;SDS011;46458;50.966;7.002;2024-02-28T13:16:59;35.03;;;23.48;;
20383;SDS011;46458;50.966;7.002;2024-02-28T13:19:29;29.75;;;19.63;;
20383;SDS011;46458;50.966;7.002;2024-02-28T13:22:01;26.40;;;18.27;;
20383;SDS011;46458;50.966;7.002;2024-02-28T13:24:30;26.83;;;18.10;;
20383;SDS011;46458;50.966;7.002;2024-02-28T13:27:02;25.70;;;17.60;;
20383;SDS011;46458;50.966;7.002;2024-02-28T13:29:33;23.70;;;17.73;;
20383;SDS011;46458;50.966;7.002;2024-02-28T13:32:03;24.45;;;17.00;;
20383;SDS011;46458;50.966;7.002;2024-02-28T13:34:32;25.25;;;17.38;;
20383;SDS011;46458;50.966;7.002;2024-02-28T13:37:09;25.77;;;18.42;;
20383;SDS011;46458;50.966;7.002;2024-02-28T13:39:38;25.90;;;18.23;;
20383;SDS011;46458;50.966;7.002;2024-02-28T13:42:10;28.27;;;18.27;;
20383;SDS011;46458;50.966;7.002;2024-02-28T13:44:39;26.13;;;18.33;;
20383;SDS011;46458;50.966;7.002;2024-02-28T13:47:08;25.10;;;18.58;;
20383;SDS011;46458;50.966;7.002;2024-02-28T13:49:38;26.50;;;17.63;;
20383;SDS011;46458;50.966;7.002;2024-02-28T13:52:10;22.58;;;16.50;;
20383;SDS011;46458;50.966;7.002;2024-02-28T13:54:39;23.40;;;15.35;;
20383;SDS011;46458;50.966;7.002;2024-02-28T13:57:08;22.25;;;14.35;;
20383;SDS011;46458;50.966;7.002;2024-02-28T13:59:37;23.25;;;15.30;;
20383;SDS011;46458;50.966;7.002;2024-02-28T14:02:06;21.15;;;15.32;;
20383;SDS011;46458;50.966;7.002;2024-02-28T14:04:37;24.17;;;15.68;;
20383;SDS011;46458;50.966;7.002;2024-02-28T14:07:10;24.17;;;16.17;;
20383;SDS011;46458;50.966;7.002;2024-02-28T14:09:42;21.83;;;14.98;;
20383;SDS011;46458;50.966;7.002;2024-02-28T14:12:11;22.35;;;14.57;;
20383;SDS011;46458;50.966;7.002;2024-02-28T14:14:40;20.33;;;13.57;;
20383;SDS011;46458;50.966;7.002;2024-02-28T14:17:09;21.70;;;14.27;;
20383;SDS011;46458;50.966;7.002;2024-02-28T14:19:39;19.45;;;13.82;;
20383;SDS011;46458;50.966;7.002;2024-02-28T14:22:07;20.35;;;13.65;;
20383;SDS011;46458;50.966;7.002;2024-02-28T14:24:39;20.52;;;13.55;;
20383;SDS011;46458;50.966;7.002;2024-02-28T14:27:08;21.67;;;12.98;;
20383;SDS011;46458;50.966;7.002;2024-02-28T14:29:37;20.85;;;12.82;;
20383;SDS011;46458;50.966;7.002;2024-02-28T14:32:06;19.90;;;14.00;;
20383;SDS011;46458;50.966;7.002;2024-02-28T14:34:35;21.38;;;13.85;;
20383;SDS011;46458;50.966;7.002;2024-02-28T14:37:06;22.60;;;13.63;;
20383;SDS011;46458;50.966;7.002;2024-02-28T14:39:38;20.42;;;13.60;;